sensor_id;sensor_type;location;lat;lon;timestamp;temperature;humidity
1351;DHT22;669;50.206;9.998;2022-12-07T00:01:05;2.40;82.20
1351;DHT22;669;50.206;9.998;2022-12-07T00:03:33;2.40;82.20
1351;DHT22;669;50.206;9.998;2022-12-07T00:06:03;2.40;82.20
1351;DHT22;669;50.206;9.998;2022-12-07T00:08:31;2.40;82.20
1351;DHT22;669;50.206;9.998;2022-12-07T00:11:01;2.40;82.20
1351;DHT22;669;50.206;9.998;2022-12-07T00:13:32;2.40;82.20
1351;DHT22;669;50.206;9.998;2022-12-07T00:16:01;2.30;82.10
1351;DHT22;669;50.206;9.998;2022-12-07T00:18:29;2.40;82.30
1351;DHT22;669;50.206;9.998;2022-12-07T00:21:00;2.30;81.60
1351;DHT22;669;50.206;9.998;2022-12-07T00:23:29;2.30;81.00
1351;DHT22;669;50.206;9.998;2022-12-07T00:26:04;2.20;82.00
1351;DHT22;669;50.206;9.998;2022-12-07T00:28:33;2.20;82.00
1351;DHT22;669;50.206;9.998;2022-12-07T00:31:03;2.20;82.40
1351;DHT22;669;50.206;9.998;2022-12-07T00:33:31;2.20;82.60
1351;DHT22;669;50.206;9.998;2022-12-07T00:36:00;2.20;83.00
1351;DHT22;669;50.206;9.998;2022-12-07T00:38:29;2.20;83.00
1351;DHT22;669;50.206;9.998;2022-12-07T00:40:58;2.20;82.60
1351;DHT22;669;50.206;9.998;2022-12-07T00:43:27;2.20;82.60
1351;DHT22;669;50.206;9.998;2022-12-07T00:45:56;2.10;82.30
1351;DHT22;669;50.206;9.998;2022-12-07T00:48:25;2.10;82.00
1351;DHT22;669;50.206;9.998;2022-12-07T00:50:53;2.10;82.50
1351;DHT22;669;50.206;9.998;2022-12-07T00:53:21;2.10;82.80
1351;DHT22;669;50.206;9.998;2022-12-07T00:55:49;2.00;82.40
1351;DHT22;669;50.206;9.998;2022-12-07T00:58:17;2.00;82.30
1351;DHT22;669;50.206;9.998;2022-12-07T01:00:45;1.90;82.90
1351;DHT22;669;50.206;9.998;2022-12-07T01:03:15;1.90;83.20
1351;DHT22;669;50.206;9.998;2022-12-07T01:05:49;2.00;83.50
1351;DHT22;669;50.206;9.998;2022-12-07T01:08:18;1.90;83.20
1351;DHT22;669;50.206;9.998;2022-12-07T01:10:46;2.00;83.60
1351;DHT22;669;50.206;9.998;2022-12-07T01:13:15;2.00;83.50
1351;DHT22;669;50.206;9.998;2022-12-07T01:15:44;2.00;83.40
1351;DHT22;669;50.206;9.998;2022-12-07T01:18:13;2.00;83.70
1351;DHT22;669;50.206;9.998;2022-12-07T01:20:41;2.00;83.60
1351;DHT22;669;50.206;9.998;2022-12-07T01:23:09;2.00;84.10
1351;DHT22;669;50.206;9.998;2022-12-07T01:25:37;2.00;84.20
1351;DHT22;669;50.206;9.998;2022-12-07T01:28:05;2.00;83.80
1351;DHT22;669;50.206;9.998;2022-12-07T01:30:33;2.00;84.50
1351;DHT22;669;50.206;9.998;2022-12-07T01:33:01;2.00;84.80
1351;DHT22;669;50.206;9.998;2022-12-07T01:35:33;2.00;84.80
1351;DHT22;669;50.206;9.998;2022-12-07T01:38:01;2.00;85.10
1351;DHT22;669;50.206;9.998;2022-12-07T01:40:29;2.00;85.40
1351;DHT22;669;50.206;9.998;2022-12-07T01:42:57;2.00;85.20
1351;DHT22;669;50.206;9.998;2022-12-07T01:45:37;2.00;85.20
1351;DHT22;669;50.206;9.998;2022-12-07T01:48:06;2.00;85.40
1351;DHT22;669;50.206;9.998;2022-12-07T01:50:38;2.10;85.40
1351;DHT22;669;50.206;9.998;2022-12-07T01:53:09;2.10;85.10
1351;DHT22;669;50.206;9.998;2022-12-07T01:55:41;2.10;85.00
1351;DHT22;669;50.206;9.998;2022-12-07T01:58:10;2.10;84.80
1351;DHT22;669;50.206;9.998;2022-12-07T02:00:39;2.10;84.90
1351;DHT22;669;50.206;9.998;2022-12-07T02:03:11;2.10;84.70
1351;DHT22;669;50.206;9.998;2022-12-07T02:05:44;2.10;84.20
1351;DHT22;669;50.206;9.998;2022-12-07T02:08:13;2.10;84.30
1351;DHT22;669;50.206;9.998;2022-12-07T02:10:41;2.10;84.20
1351;DHT22;669;50.206;9.998;2022-12-07T02:13:12;2.20;84.60
1351;DHT22;669;50.206;9.998;2022-12-07T02:16:08;2.20;84.50
1351;DHT22;669;50.206;9.998;2022-12-07T02:18:48;2.10;84.60
1351;DHT22;669;50.206;9.998;2022-12-07T02:21:27;2.20;84.20
1351;DHT22;669;50.206;9.998;2022-12-07T02:24:30;2.10;84.20
1351;DHT22;669;50.206;9.998;2022-12-07T02:27:34;2.20;84.50
1351;DHT22;669;50.206;9.998;2022-12-07T02:30:07;2.20;84.10
1351;DHT22;669;50.206;9.998;2022-12-07T02:32:42;2.20;84.20
1351;DHT22;669;50.206;9.998;2022-12-07T02:35:15;2.10;84.30
1351;DHT22;669;50.206;9.998;2022-12-07T02:37:53;2.20;84.10
1351;DHT22;669;50.206;9.998;2022-12-07T02:40:27;2.10;84.70
1351;DHT22;669;50.206;9.998;2022-12-07T02:43:01;2.10;85.20
1351;DHT22;669;50.206;9.998;2022-12-07T02:45:32;2.10;85.30
1351;DHT22;669;50.206;9.998;2022-12-07T02:48:02;2.20;85.90
1351;DHT22;669;50.206;9.998;2022-12-07T02:50:31;2.10;85.70
1351;DHT22;669;50.206;9.998;2022-12-07T02:52:59;2.10;85.80
1351;DHT22;669;50.206;9.998;2022-12-07T02:55:31;2.20;86.00
1351;DHT22;669;50.206;9.998;2022-12-07T02:58:14;2.20;85.90
1351;DHT22;669;50.206;9.998;2022-12-07T03:00:54;2.20;86.40
1351;DHT22;669;50.206;9.998;2022-12-07T03:03:27;2.30;86.40
1351;DHT22;669;50.206;9.998;2022-12-07T03:06:10;2.20;85.50
1351;DHT22;669;50.206;9.998;2022-12-07T03:08:48;2.20;86.10
1351;DHT22;669;50.206;9.998;2022-12-07T03:11:25;2.20;86.20
1351;DHT22;669;50.206;9.998;2022-12-07T03:13:59;2.20;85.80
1351;DHT22;669;50.206;9.998;2022-12-07T03:16:33;2.20;86.20
1351;DHT22;669;50.206;9.998;2022-12-07T03:19:07;2.20;86.60
1351;DHT22;669;50.206;9.998;2022-12-07T03:21:40;2.20;86.60
1351;DHT22;669;50.206;9.998;2022-12-07T03:24:13;2.20;86.60
1351;DHT22;669;50.206;9.998;2022-12-07T03:26:46;2.20;86.60
1351;DHT22;669;50.206;9.998;2022-12-07T03:29:19;2.20;86.60
1351;DHT22;669;50.206;9.998;2022-12-07T03:31:54;2.20;86.60
1351;DHT22;669;50.206;9.998;2022-12-07T03:34:29;2.20;86.90
1351;DHT22;669;50.206;9.998;2022-12-07T03:37:02;2.20;87.20
1351;DHT22;669;50.206;9.998;2022-12-07T03:39:35;2.20;87.00
1351;DHT22;669;50.206;9.998;2022-12-07T03:42:06;2.20;86.60
1351;DHT22;669;50.206;9.998;2022-12-07T03:44:35;2.20;86.80
1351;DHT22;669;50.206;9.998;2022-12-07T03:47:09;2.30;86.70
1351;DHT22;669;50.206;9.998;2022-12-07T03:49:43;2.20;86.60
1351;DHT22;669;50.206;9.998;2022-12-07T03:52:17;2.30;86.70
1351;DHT22;669;50.206;9.998;2022-12-07T03:54:53;2.30;86.70
1351;DHT22;669;50.206;9.998;2022-12-07T03:57:24;2.30;86.70
1351;DHT22;669;50.206;9.998;2022-12-07T03:59:54;2.30;86.70
1351;DHT22;669;50.206;9.998;2022-12-07T04:02:25;2.30;86.70
1351;DHT22;669;50.206;9.998;2022-12-07T04:04:54;2.40;86.70
1351;DHT22;669;50.206;9.998;2022-12-07T04:07:23;2.40;86.70
1351;DHT22;669;50.206;9.998;2022-12-07T04:09:51;2.30;86.30
1351;DHT22;669;50.206;9.998;2022-12-07T04:12:21;2.40;86.70
1351;DHT22;669;50.206;9.998;2022-12-07T04:14:49;2.40;86.70
1351;DHT22;669;50.206;9.998;2022-12-07T04:17:17;2.40;86.70
1351;DHT22;669;50.206;9.998;2022-12-07T04:19:46;2.40;86.70
1351;DHT22;669;50.206;9.998;2022-12-07T04:22:14;2.40;86.60
1351;DHT22;669;50.206;9.998;2022-12-07T04:24:42;2.40;86.70
1351;DHT22;669;50.206;9.998;2022-12-07T04:27:10;2.40;86.80
1351;DHT22;669;50.206;9.998;2022-12-07T04:29:38;2.40;86.70
1351;DHT22;669;50.206;9.998;2022-12-07T04:32:06;2.40;86.70
1351;DHT22;669;50.206;9.998;2022-12-07T04:34:34;2.40;86.70
1351;DHT22;669;50.206;9.998;2022-12-07T04:37:03;2.40;86.70
1351;DHT22;669;50.206;9.998;2022-12-07T04:39:32;2.40;86.70
1351;DHT22;669;50.206;9.998;2022-12-07T04:42:01;2.40;86.70
1351;DHT22;669;50.206;9.998;2022-12-07T04:44:30;2.40;87.10
1351;DHT22;669;50.206;9.998;2022-12-07T04:46:58;2.40;86.80
1351;DHT22;669;50.206;9.998;2022-12-07T04:49:27;2.40;86.80
1351;DHT22;669;50.206;9.998;2022-12-07T04:51:55;2.40;86.90
1351;DHT22;669;50.206;9.998;2022-12-07T04:54:24;2.40;86.70
1351;DHT22;669;50.206;9.998;2022-12-07T04:56:54;2.40;87.20
1351;DHT22;669;50.206;9.998;2022-12-07T04:59:22;2.40;87.00
1351;DHT22;669;50.206;9.998;2022-12-07T05:01:50;2.40;86.90
1351;DHT22;669;50.206;9.998;2022-12-07T05:04:18;2.50;86.80
1351;DHT22;669;50.206;9.998;2022-12-07T05:06:46;2.40;86.70
1351;DHT22;669;50.206;9.998;2022-12-07T05:09:14;2.50;86.80
1351;DHT22;669;50.206;9.998;2022-12-07T05:11:43;2.50;86.90
1351;DHT22;669;50.206;9.998;2022-12-07T05:14:13;2.40;86.70
1351;DHT22;669;50.206;9.998;2022-12-07T05:16:42;2.40;86.70
1351;DHT22;669;50.206;9.998;2022-12-07T05:19:11;2.50;86.90
1351;DHT22;669;50.206;9.998;2022-12-07T05:21:39;2.50;86.90
1351;DHT22;669;50.206;9.998;2022-12-07T05:24:09;2.50;86.30
1351;DHT22;669;50.206;9.998;2022-12-07T05:26:38;2.50;86.10
1351;DHT22;669;50.206;9.998;2022-12-07T05:29:10;2.50;86.40
1351;DHT22;669;50.206;9.998;2022-12-07T05:31:38;2.50;86.80
1351;DHT22;669;50.206;9.998;2022-12-07T05:34:06;2.50;87.60
1351;DHT22;669;50.206;9.998;2022-12-07T05:36:34;2.50;86.40
1351;DHT22;669;50.206;9.998;2022-12-07T05:39:02;2.60;86.60
1351;DHT22;669;50.206;9.998;2022-12-07T05:41:30;2.50;86.40
1351;DHT22;669;50.206;9.998;2022-12-07T05:44:16;2.50;86.90
1351;DHT22;669;50.206;9.998;2022-12-07T05:46:44;2.50;86.80
1351;DHT22;669;50.206;9.998;2022-12-07T05:49:12;2.60;87.00
1351;DHT22;669;50.206;9.998;2022-12-07T05:51:40;2.60;86.70
1351;DHT22;669;50.206;9.998;2022-12-07T05:54:08;2.60;87.00
1351;DHT22;669;50.206;9.998;2022-12-07T05:56:36;2.50;86.80
1351;DHT22;669;50.206;9.998;2022-12-07T05:59:04;2.50;86.90
1351;DHT22;669;50.206;9.998;2022-12-07T06:01:53;2.50;86.80
1351;DHT22;669;50.206;9.998;2022-12-07T06:04:22;2.50;87.60
1351;DHT22;669;50.206;9.998;2022-12-07T06:06:50;2.50;87.60
1351;DHT22;669;50.206;9.998;2022-12-07T06:09:19;2.50;87.80
1351;DHT22;669;50.206;9.998;2022-12-07T06:11:47;2.50;87.90
1351;DHT22;669;50.206;9.998;2022-12-07T06:14:33;2.50;87.90
1351;DHT22;669;50.206;9.998;2022-12-07T06:17:03;2.50;88.10
1351;DHT22;669;50.206;9.998;2022-12-07T06:19:31;2.60;88.30
1351;DHT22;669;50.206;9.998;2022-12-07T06:21:59;2.60;88.20
1351;DHT22;669;50.206;9.998;2022-12-07T06:24:27;2.60;88.20
1351;DHT22;669;50.206;9.998;2022-12-07T06:26:55;2.60;88.50
1351;DHT22;669;50.206;9.998;2022-12-07T06:29:23;2.60;89.30
1351;DHT22;669;50.206;9.998;2022-12-07T06:31:51;2.60;88.30
1351;DHT22;669;50.206;9.998;2022-12-07T06:34:22;2.60;88.30
1351;DHT22;669;50.206;9.998;2022-12-07T06:36:51;2.60;89.20
1351;DHT22;669;50.206;9.998;2022-12-07T06:39:23;2.60;88.60
1351;DHT22;669;50.206;9.998;2022-12-07T06:41:51;2.60;89.00
1351;DHT22;669;50.206;9.998;2022-12-07T06:44:21;2.60;89.10
1351;DHT22;669;50.206;9.998;2022-12-07T06:46:49;2.60;89.20
1351;DHT22;669;50.206;9.998;2022-12-07T06:49:22;2.60;89.20
1351;DHT22;669;50.206;9.998;2022-12-07T06:51:50;2.60;89.30
1351;DHT22;669;50.206;9.998;2022-12-07T06:54:18;2.60;89.10
1351;DHT22;669;50.206;9.998;2022-12-07T06:56:46;2.70;89.40
1351;DHT22;669;50.206;9.998;2022-12-07T06:59:14;2.70;89.40
1351;DHT22;669;50.206;9.998;2022-12-07T07:01:42;2.70;89.40
1351;DHT22;669;50.206;9.998;2022-12-07T07:04:10;2.70;89.60
1351;DHT22;669;50.206;9.998;2022-12-07T07:06:40;2.70;89.60
1351;DHT22;669;50.206;9.998;2022-12-07T07:09:08;2.70;89.50
1351;DHT22;669;50.206;9.998;2022-12-07T07:11:36;2.70;89.40
1351;DHT22;669;50.206;9.998;2022-12-07T07:14:04;2.80;89.60
1351;DHT22;669;50.206;9.998;2022-12-07T07:16:32;2.80;89.80
1351;DHT22;669;50.206;9.998;2022-12-07T07:19:00;2.80;90.00
1351;DHT22;669;50.206;9.998;2022-12-07T07:21:28;2.80;89.90
1351;DHT22;669;50.206;9.998;2022-12-07T07:23:57;2.80;90.20
1351;DHT22;669;50.206;9.998;2022-12-07T07:26:25;2.80;89.70
1351;DHT22;669;50.206;9.998;2022-12-07T07:28:53;2.80;89.60
1351;DHT22;669;50.206;9.998;2022-12-07T07:31:21;2.90;89.70
1351;DHT22;669;50.206;9.998;2022-12-07T07:33:49;2.80;89.80
1351;DHT22;669;50.206;9.998;2022-12-07T07:36:17;2.90;89.70
1351;DHT22;669;50.206;9.998;2022-12-07T07:38:45;2.90;90.00
1351;DHT22;669;50.206;9.998;2022-12-07T07:41:14;2.90;90.30
1351;DHT22;669;50.206;9.998;2022-12-07T07:43:42;2.90;90.00
1351;DHT22;669;50.206;9.998;2022-12-07T07:46:10;2.90;90.30
1351;DHT22;669;50.206;9.998;2022-12-07T07:48:38;2.90;90.20
1351;DHT22;669;50.206;9.998;2022-12-07T07:51:07;3.00;90.20
1351;DHT22;669;50.206;9.998;2022-12-07T07:53:35;3.00;90.10
1351;DHT22;669;50.206;9.998;2022-12-07T07:56:03;3.00;90.10
1351;DHT22;669;50.206;9.998;2022-12-07T07:58:37;3.00;90.10
1351;DHT22;669;50.206;9.998;2022-12-07T08:01:08;3.00;90.20
1351;DHT22;669;50.206;9.998;2022-12-07T08:03:36;3.10;90.20
1351;DHT22;669;50.206;9.998;2022-12-07T08:06:04;3.10;90.20
1351;DHT22;669;50.206;9.998;2022-12-07T08:08:32;3.10;90.30
1351;DHT22;669;50.206;9.998;2022-12-07T08:11:00;3.10;90.40
1351;DHT22;669;50.206;9.998;2022-12-07T08:13:28;3.10;90.40
1351;DHT22;669;50.206;9.998;2022-12-07T08:16:03;3.10;90.40
1351;DHT22;669;50.206;9.998;2022-12-07T08:18:34;3.20;90.40
1351;DHT22;669;50.206;9.998;2022-12-07T08:21:03;3.20;90.50
1351;DHT22;669;50.206;9.998;2022-12-07T08:23:32;3.20;90.40
1351;DHT22;669;50.206;9.998;2022-12-07T08:26:07;3.20;90.40
1351;DHT22;669;50.206;9.998;2022-12-07T08:28:36;3.20;90.20
1351;DHT22;669;50.206;9.998;2022-12-07T08:31:07;3.30;90.40
1351;DHT22;669;50.206;9.998;2022-12-07T08:33:36;3.30;90.40
1351;DHT22;669;50.206;9.998;2022-12-07T08:36:06;3.30;90.30
1351;DHT22;669;50.206;9.998;2022-12-07T08:38:35;3.30;90.40
1351;DHT22;669;50.206;9.998;2022-12-07T08:41:03;3.30;90.20
1351;DHT22;669;50.206;9.998;2022-12-07T08:43:32;3.30;90.10
1351;DHT22;669;50.206;9.998;2022-12-07T08:46:08;3.30;90.00
1351;DHT22;669;50.206;9.998;2022-12-07T08:48:40;3.40;90.00
1351;DHT22;669;50.206;9.998;2022-12-07T08:51:09;3.40;89.10
1351;DHT22;669;50.206;9.998;2022-12-07T08:53:38;3.40;88.20
1351;DHT22;669;50.206;9.998;2022-12-07T08:56:07;3.40;87.70
1351;DHT22;669;50.206;9.998;2022-12-07T08:58:36;3.40;86.50
1351;DHT22;669;50.206;9.998;2022-12-07T09:01:04;3.30;86.60
1351;DHT22;669;50.206;9.998;2022-12-07T09:03:34;3.30;86.40
1351;DHT22;669;50.206;9.998;2022-12-07T09:06:02;3.40;86.40
1351;DHT22;669;50.206;9.998;2022-12-07T09:08:34;3.40;84.10
1351;DHT22;669;50.206;9.998;2022-12-07T09:11:02;3.50;83.60
1351;DHT22;669;50.206;9.998;2022-12-07T09:13:30;3.50;82.70
1351;DHT22;669;50.206;9.998;2022-12-07T09:15:59;3.60;82.80
1351;DHT22;669;50.206;9.998;2022-12-07T09:18:27;3.60;82.50
1351;DHT22;669;50.206;9.998;2022-12-07T09:20:57;3.70;81.20
1351;DHT22;669;50.206;9.998;2022-12-07T09:23:25;3.80;80.90
1351;DHT22;669;50.206;9.998;2022-12-07T09:25:53;3.90;80.70
1351;DHT22;669;50.206;9.998;2022-12-07T09:28:21;4.10;80.30
1351;DHT22;669;50.206;9.998;2022-12-07T09:30:49;4.20;79.80
1351;DHT22;669;50.206;9.998;2022-12-07T09:33:37;4.30;78.70
1351;DHT22;669;50.206;9.998;2022-12-07T09:36:07;4.40;77.40
1351;DHT22;669;50.206;9.998;2022-12-07T09:38:36;4.50;75.80
1351;DHT22;669;50.206;9.998;2022-12-07T09:41:05;4.40;74.70
1351;DHT22;669;50.206;9.998;2022-12-07T09:43:35;4.40;75.60
1351;DHT22;669;50.206;9.998;2022-12-07T09:46:03;4.40;75.20
1351;DHT22;669;50.206;9.998;2022-12-07T09:48:33;4.40;74.10
1351;DHT22;669;50.206;9.998;2022-12-07T09:51:13;4.30;72.90
1351;DHT22;669;50.206;9.998;2022-12-07T09:53:49;4.20;73.70
1351;DHT22;669;50.206;9.998;2022-12-07T09:56:18;4.20;73.90
1351;DHT22;669;50.206;9.998;2022-12-07T09:58:47;4.20;74.70
1351;DHT22;669;50.206;9.998;2022-12-07T10:01:18;4.20;75.50
1351;DHT22;669;50.206;9.998;2022-12-07T10:03:50;4.20;76.20
1351;DHT22;669;50.206;9.998;2022-12-07T10:06:19;4.20;75.10
1351;DHT22;669;50.206;9.998;2022-12-07T10:08:48;4.20;75.20
1351;DHT22;669;50.206;9.998;2022-12-07T10:11:16;4.20;76.30
1351;DHT22;669;50.206;9.998;2022-12-07T10:13:45;4.20;75.70
1351;DHT22;669;50.206;9.998;2022-12-07T10:16:32;4.20;75.00
1351;DHT22;669;50.206;9.998;2022-12-07T10:19:18;4.20;73.50
1351;DHT22;669;50.206;9.998;2022-12-07T10:22:11;4.30;73.30
1351;DHT22;669;50.206;9.998;2022-12-07T10:24:41;4.30;73.40
1351;DHT22;669;50.206;9.998;2022-12-07T10:27:19;4.30;73.80
1351;DHT22;669;50.206;9.998;2022-12-07T10:29:50;4.30;74.10
1351;DHT22;669;50.206;9.998;2022-12-07T10:32:29;4.40;74.40
1351;DHT22;669;50.206;9.998;2022-12-07T10:35:23;4.40;73.70
1351;DHT22;669;50.206;9.998;2022-12-07T10:37:57;4.40;73.90
1351;DHT22;669;50.206;9.998;2022-12-07T10:40:33;4.30;73.50
1351;DHT22;669;50.206;9.998;2022-12-07T10:43:07;4.30;74.20
1351;DHT22;669;50.206;9.998;2022-12-07T10:45:57;4.30;74.60
1351;DHT22;669;50.206;9.998;2022-12-07T10:48:35;4.30;74.70
1351;DHT22;669;50.206;9.998;2022-12-07T10:51:12;4.30;74.60
1351;DHT22;669;50.206;9.998;2022-12-07T10:53:50;4.30;75.40
1351;DHT22;669;50.206;9.998;2022-12-07T10:56:46;4.30;73.90
1351;DHT22;669;50.206;9.998;2022-12-07T10:59:34;4.30;73.90
1351;DHT22;669;50.206;9.998;2022-12-07T11:02:20;4.40;74.70
1351;DHT22;669;50.206;9.998;2022-12-07T11:05:01;4.40;74.30
1351;DHT22;669;50.206;9.998;2022-12-07T11:07:42;4.40;75.00
1351;DHT22;669;50.206;9.998;2022-12-07T11:10:19;4.50;74.20
1351;DHT22;669;50.206;9.998;2022-12-07T11:13:07;4.50;73.60
1351;DHT22;669;50.206;9.998;2022-12-07T11:15:50;4.60;73.50
1351;DHT22;669;50.206;9.998;2022-12-07T11:18:24;4.70;73.60
1351;DHT22;669;50.206;9.998;2022-12-07T11:20:59;4.80;75.00
1351;DHT22;669;50.206;9.998;2022-12-07T11:23:43;5.00;73.90
1351;DHT22;669;50.206;9.998;2022-12-07T11:26:20;5.20;74.80
1351;DHT22;669;50.206;9.998;2022-12-07T11:29:11;5.40;70.90
1351;DHT22;669;50.206;9.998;2022-12-07T11:31:52;5.40;70.90
1351;DHT22;669;50.206;9.998;2022-12-07T11:34:29;5.40;70.50
1351;DHT22;669;50.206;9.998;2022-12-07T11:37:09;5.30;69.80
1351;DHT22;669;50.206;9.998;2022-12-07T11:39:42;5.30;70.80
1351;DHT22;669;50.206;9.998;2022-12-07T11:42:16;5.20;68.40
1351;DHT22;669;50.206;9.998;2022-12-07T11:44:51;5.20;65.20
1351;DHT22;669;50.206;9.998;2022-12-07T11:47:27;5.10;65.60
1351;DHT22;669;50.206;9.998;2022-12-07T11:50:05;5.10;65.80
1351;DHT22;669;50.206;9.998;2022-12-07T11:52:43;5.00;65.60
1351;DHT22;669;50.206;9.998;2022-12-07T11:55:19;5.00;65.60
1351;DHT22;669;50.206;9.998;2022-12-07T11:57:54;5.00;65.10
1351;DHT22;669;50.206;9.998;2022-12-07T12:00:26;4.90;65.50
1351;DHT22;669;50.206;9.998;2022-12-07T12:02:58;4.90;66.00
1351;DHT22;669;50.206;9.998;2022-12-07T12:05:28;4.90;66.50
1351;DHT22;669;50.206;9.998;2022-12-07T12:08:03;4.90;66.40
1351;DHT22;669;50.206;9.998;2022-12-07T12:11:03;4.90;66.80
1351;DHT22;669;50.206;9.998;2022-12-07T12:17:30;5.00;65.30
1351;DHT22;669;50.206;9.998;2022-12-07T12:20:05;5.00;64.60
1351;DHT22;669;50.206;9.998;2022-12-07T12:22:44;5.00;65.20
1351;DHT22;669;50.206;9.998;2022-12-07T12:25:20;5.10;65.60
1351;DHT22;669;50.206;9.998;2022-12-07T12:27:49;5.10;65.20
1351;DHT22;669;50.206;9.998;2022-12-07T12:30:33;5.10;65.10
1351;DHT22;669;50.206;9.998;2022-12-07T12:33:05;5.10;65.30
1351;DHT22;669;50.206;9.998;2022-12-07T12:35:35;5.10;65.80
1351;DHT22;669;50.206;9.998;2022-12-07T12:38:31;5.10;65.80
1351;DHT22;669;50.206;9.998;2022-12-07T12:41:00;5.00;64.00
1351;DHT22;669;50.206;9.998;2022-12-07T12:43:50;5.00;63.40
1351;DHT22;669;50.206;9.998;2022-12-07T12:49:43;5.10;63.50
1351;DHT22;669;50.206;9.998;2022-12-07T12:52:50;5.10;62.80
1351;DHT22;669;50.206;9.998;2022-12-07T12:58:29;5.10;63.90
1351;DHT22;669;50.206;9.998;2022-12-07T13:04:21;5.60;60.50
1351;DHT22;669;50.206;9.998;2022-12-07T13:06:51;5.80;59.30
1351;DHT22;669;50.206;9.998;2022-12-07T13:09:23;5.90;60.10
1351;DHT22;669;50.206;9.998;2022-12-07T13:12:01;5.90;58.50
1351;DHT22;669;50.206;9.998;2022-12-07T13:14:41;5.90;58.30
1351;DHT22;669;50.206;9.998;2022-12-07T13:17:10;5.80;58.10
1351;DHT22;669;50.206;9.998;2022-12-07T13:19:56;5.70;58.80
1351;DHT22;669;50.206;9.998;2022-12-07T13:22:49;5.60;58.80
1351;DHT22;669;50.206;9.998;2022-12-07T13:25:23;5.40;59.20
1351;DHT22;669;50.206;9.998;2022-12-07T13:27:57;5.40;60.00
1351;DHT22;669;50.206;9.998;2022-12-07T13:30:29;5.30;60.20
1351;DHT22;669;50.206;9.998;2022-12-07T13:32:59;5.30;60.30
1351;DHT22;669;50.206;9.998;2022-12-07T13:35:35;5.20;60.40
1351;DHT22;669;50.206;9.998;2022-12-07T13:38:14;5.20;60.80
1351;DHT22;669;50.206;9.998;2022-12-07T13:40:59;5.20;60.90
1351;DHT22;669;50.206;9.998;2022-12-07T13:43:27;5.10;60.50
1351;DHT22;669;50.206;9.998;2022-12-07T13:45:56;5.10;60.80
1351;DHT22;669;50.206;9.998;2022-12-07T13:48:30;5.00;61.00
1351;DHT22;669;50.206;9.998;2022-12-07T13:51:02;4.90;61.80
1351;DHT22;669;50.206;9.998;2022-12-07T13:53:31;4.80;62.60
1351;DHT22;669;50.206;9.998;2022-12-07T13:56:00;4.80;64.60
1351;DHT22;669;50.206;9.998;2022-12-07T13:58:30;4.80;66.00
1351;DHT22;669;50.206;9.998;2022-12-07T14:01:00;4.70;66.40
1351;DHT22;669;50.206;9.998;2022-12-07T14:03:32;4.70;67.20
1351;DHT22;669;50.206;9.998;2022-12-07T14:06:06;4.60;67.40
1351;DHT22;669;50.206;9.998;2022-12-07T14:08:36;4.60;67.90
1351;DHT22;669;50.206;9.998;2022-12-07T14:11:04;4.60;68.50
1351;DHT22;669;50.206;9.998;2022-12-07T14:13:34;4.50;68.60
1351;DHT22;669;50.206;9.998;2022-12-07T14:16:16;4.60;69.40
1351;DHT22;669;50.206;9.998;2022-12-07T14:18:45;4.60;69.50
1351;DHT22;669;50.206;9.998;2022-12-07T14:21:16;4.60;69.60
1351;DHT22;669;50.206;9.998;2022-12-07T14:24:08;4.60;69.40
1351;DHT22;669;50.206;9.998;2022-12-07T14:26:37;4.60;69.50
1351;DHT22;669;50.206;9.998;2022-12-07T14:29:29;4.60;70.10
1351;DHT22;669;50.206;9.998;2022-12-07T14:32:01;4.60;70.70
1351;DHT22;669;50.206;9.998;2022-12-07T14:34:36;4.70;70.00
1351;DHT22;669;50.206;9.998;2022-12-07T14:37:06;4.60;69.80
1351;DHT22;669;50.206;9.998;2022-12-07T14:39:36;4.50;69.10
1351;DHT22;669;50.206;9.998;2022-12-07T14:42:04;4.50;67.60
1351;DHT22;669;50.206;9.998;2022-12-07T14:44:32;4.50;67.80
1351;DHT22;669;50.206;9.998;2022-12-07T14:47:01;4.40;67.70
1351;DHT22;669;50.206;9.998;2022-12-07T14:49:49;4.40;67.40
1351;DHT22;669;50.206;9.998;2022-12-07T14:52:20;4.40;68.00
1351;DHT22;669;50.206;9.998;2022-12-07T14:55:18;4.30;68.20
1351;DHT22;669;50.206;9.998;2022-12-07T14:57:48;4.30;69.00
1351;DHT22;669;50.206;9.998;2022-12-07T15:00:19;4.20;69.80
1351;DHT22;669;50.206;9.998;2022-12-07T15:02:48;4.20;71.00
1351;DHT22;669;50.206;9.998;2022-12-07T15:05:16;4.20;71.70
1351;DHT22;669;50.206;9.998;2022-12-07T15:07:46;4.10;72.90
1351;DHT22;669;50.206;9.998;2022-12-07T15:10:18;4.00;73.60
1351;DHT22;669;50.206;9.998;2022-12-07T15:12:50;4.00;74.30
1351;DHT22;669;50.206;9.998;2022-12-07T15:15:18;3.90;75.30
1351;DHT22;669;50.206;9.998;2022-12-07T15:17:46;3.80;76.70
1351;DHT22;669;50.206;9.998;2022-12-07T15:20:15;3.80;77.00
1351;DHT22;669;50.206;9.998;2022-12-07T15:22:43;3.70;78.20
1351;DHT22;669;50.206;9.998;2022-12-07T15:25:13;3.60;77.90
1351;DHT22;669;50.206;9.998;2022-12-07T15:27:42;3.60;78.70
1351;DHT22;669;50.206;9.998;2022-12-07T15:30:11;3.50;78.60
1351;DHT22;669;50.206;9.998;2022-12-07T15:32:38;3.50;79.00
1351;DHT22;669;50.206;9.998;2022-12-07T15:35:07;3.40;79.10
1351;DHT22;669;50.206;9.998;2022-12-07T15:37:35;3.40;78.70
1351;DHT22;669;50.206;9.998;2022-12-07T15:40:04;3.30;78.90
1351;DHT22;669;50.206;9.998;2022-12-07T15:42:36;3.20;79.50
1351;DHT22;669;50.206;9.998;2022-12-07T15:45:08;3.20;79.80
1351;DHT22;669;50.206;9.998;2022-12-07T15:47:38;3.20;81.60
1351;DHT22;669;50.206;9.998;2022-12-07T15:50:26;3.10;80.20
1351;DHT22;669;50.206;9.998;2022-12-07T15:52:54;3.00;81.00
1351;DHT22;669;50.206;9.998;2022-12-07T15:55:22;3.00;80.30
1351;DHT22;669;50.206;9.998;2022-12-07T15:57:49;2.90;80.60
1351;DHT22;669;50.206;9.998;2022-12-07T16:00:20;2.80;81.30
1351;DHT22;669;50.206;9.998;2022-12-07T16:02:48;2.80;82.30
1351;DHT22;669;50.206;9.998;2022-12-07T16:05:16;2.80;82.60
1351;DHT22;669;50.206;9.998;2022-12-07T16:07:44;2.80;82.80
1351;DHT22;669;50.206;9.998;2022-12-07T16:10:13;2.80;83.10
1351;DHT22;669;50.206;9.998;2022-12-07T16:12:41;2.80;83.00
1351;DHT22;669;50.206;9.998;2022-12-07T16:15:10;2.70;83.50
1351;DHT22;669;50.206;9.998;2022-12-07T16:17:39;2.70;83.50
1351;DHT22;669;50.206;9.998;2022-12-07T16:20:08;2.70;83.70
1351;DHT22;669;50.206;9.998;2022-12-07T16:22:36;2.60;83.70
1351;DHT22;669;50.206;9.998;2022-12-07T16:25:04;2.60;83.80
1351;DHT22;669;50.206;9.998;2022-12-07T16:27:33;2.60;83.80
1351;DHT22;669;50.206;9.998;2022-12-07T16:30:01;2.60;83.70
1351;DHT22;669;50.206;9.998;2022-12-07T16:32:29;2.60;83.90
1351;DHT22;669;50.206;9.998;2022-12-07T16:34:59;2.60;84.60
1351;DHT22;669;50.206;9.998;2022-12-07T16:37:27;2.50;83.00
1351;DHT22;669;50.206;9.998;2022-12-07T16:39:55;2.40;83.50
1351;DHT22;669;50.206;9.998;2022-12-07T16:42:23;2.40;84.40
1351;DHT22;669;50.206;9.998;2022-12-07T16:44:51;2.40;84.20
1351;DHT22;669;50.206;9.998;2022-12-07T16:47:19;2.40;84.40
1351;DHT22;669;50.206;9.998;2022-12-07T16:49:47;2.40;84.10
1351;DHT22;669;50.206;9.998;2022-12-07T16:52:16;2.30;84.10
1351;DHT22;669;50.206;9.998;2022-12-07T16:54:47;2.30;85.10
1351;DHT22;669;50.206;9.998;2022-12-07T16:57:16;2.30;85.30
1351;DHT22;669;50.206;9.998;2022-12-07T16:59:49;2.30;86.20
1351;DHT22;669;50.206;9.998;2022-12-07T17:02:18;2.30;86.60
1351;DHT22;669;50.206;9.998;2022-12-07T17:04:46;2.30;86.10
1351;DHT22;669;50.206;9.998;2022-12-07T17:07:16;2.30;86.70
1351;DHT22;669;50.206;9.998;2022-12-07T17:09:44;2.30;86.70
1351;DHT22;669;50.206;9.998;2022-12-07T17:12:12;2.40;86.70
1351;DHT22;669;50.206;9.998;2022-12-07T17:14:40;2.40;86.70
1351;DHT22;669;50.206;9.998;2022-12-07T17:17:25;2.40;86.20
1351;DHT22;669;50.206;9.998;2022-12-07T17:19:53;2.40;86.10